Time;durP1;ratioP1;P1;durP2;ratioP2;P2;SDS_P1;SDS_P2;PMS_P1;PMS_P2;Temp;Humidity;BMP_temperature;BMP_pressure;BME280_temperature;BME280_humidity;BME280_pressure;Samples;Min_cycle;Max_cycle;Signal;HPM_P1;HPM_P2
2023/06/28 00:00:23;;;;;;;6.90;2.87;;;;;;;15.21;100.00;101704.34;5045933;28;20189;-78
2023/06/28 00:02:49;;;;;;;7.63;2.60;;;;;;;15.18;100.00;101700.81;5045922;28;20240;-77
2023/06/28 00:05:14;;;;;;;5.67;2.50;;;;;;;15.15;100.00;101699.06;5047732;28;20667;-77
2023/06/28 00:07:40;;;;;;;7.67;2.20;;;;;;;15.14;100.00;101714.53;5051492;28;20213;-76
2023/06/28 00:10:06;;;;;;;6.30;2.73;;;;;;;15.11;100.00;101714.50;5053155;28;20211;-77
2023/06/28 00:12:33;;;;;;;6.47;2.37;;;;;;;15.11;100.00;101709.34;5045115;28;20733;-78
2023/06/28 00:15:00;;;;;;;6.07;2.47;;;;;;;15.09;100.00;101706.72;5048504;28;20541;-77
2023/06/28 00:17:29;;;;;;;8.23;2.60;;;;;;;15.05;100.00;101712.69;5051816;28;20312;-77
2023/06/28 00:19:59;;;;;;;6.03;2.53;;;;;;;15.02;100.00;101707.50;5052490;28;20201;-78
2023/06/28 00:22:31;;;;;;;6.80;2.23;;;;;;;15.00;100.00;101709.16;5051562;28;20297;-77
2023/06/28 00:24:58;;;;;;;7.00;2.20;;;;;;;14.99;100.00;101715.16;5053570;28;20209;-78
2023/06/28 00:27:23;;;;;;;9.17;2.77;;;;;;;14.97;100.00;101716.00;5052132;28;20772;-77
2023/06/28 00:29:49;;;;;;;8.67;2.67;;;;;;;14.93;100.00;101702.19;5061558;28;20190;-78
2023/06/28 00:32:15;;;;;;;8.30;2.60;;;;;;;14.92;100.00;101697.00;5058116;28;20547;-77
2023/06/28 00:34:40;;;;;;;4.73;2.30;;;;;;;14.90;100.00;101709.88;5053796;28;20635;-78
2023/06/28 00:37:06;;;;;;;6.20;2.60;;;;;;;14.92;100.00;101712.47;5047996;28;20435;-77
2023/06/28 00:39:33;;;;;;;6.70;2.37;;;;;;;14.89;100.00;101715.88;5053534;28;20251;-77
2023/06/28 00:41:59;;;;;;;5.37;2.40;;;;;;;14.86;100.00;101718.41;5051879;28;20720;-77
2023/06/28 00:44:24;;;;;;;6.50;2.67;;;;;;;14.87;100.00;101708.97;5069385;28;20206;-77
2023/06/28 00:46:50;;;;;;;5.47;2.50;;;;;;;14.85;100.00;101710.63;5052601;28;20686;-77
2023/06/28 00:49:16;;;;;;;7.40;2.60;;;;;;;14.81;100.00;101716.56;5048245;28;20196;-77
2023/06/28 00:51:43;;;;;;;4.07;2.13;;;;;;;14.79;100.00;101715.69;5054064;28;20197;-78
2023/06/28 00:54:09;;;;;;;7.30;2.93;;;;;;;14.80;100.00;101718.31;5054070;28;20193;-78
2023/06/28 00:56:36;;;;;;;6.43;2.40;;;;;;;14.78;100.00;101717.41;5036057;28;20214;-77
2023/06/28 00:59:03;;;;;;;7.47;2.40;;;;;;;14.75;100.00;101716.47;5069024;28;20217;-77
2023/06/28 01:01:29;;;;;;;11.30;2.90;;;;;;;14.75;100.00;101717.38;5035359;28;20202;-77
2023/06/28 01:03:55;;;;;;;7.30;2.53;;;;;;;14.73;100.00;101721.63;5052818;28;20543;-78
2023/06/28 01:06:22;;;;;;;6.27;2.27;;;;;;;14.71;100.00;101725.88;5046715;28;20282;-77
2023/06/28 01:08:48;;;;;;;7.43;2.57;;;;;;;14.73;100.00;101718.19;5052006;28;20269;-78
2023/06/28 01:11:14;;;;;;;8.00;2.33;;;;;;;14.69;100.00;101711.25;5052464;28;20190;-78
2023/06/28 01:13:41;;;;;;;6.50;2.30;;;;;;;14.66;100.00;101719.78;5052213;28;20189;-76
2023/06/28 01:16:07;;;;;;;5.20;2.30;;;;;;;14.60;100.00;101711.94;5044880;28;20226;-77
2023/06/28 01:18:35;;;;;;;4.20;2.13;;;;;;;14.60;100.00;101711.94;5055887;28;20276;-77
2023/06/28 01:21:05;;;;;;;6.77;2.90;;;;;;;14.62;100.00;101720.56;5056419;28;20562;-77
2023/06/28 01:23:31;;;;;;;3.53;2.50;;;;;;;14.60;100.00;101724.81;5060965;28;20601;-77
2023/06/28 01:26:02;;;;;;;6.43;2.67;;;;;;;14.59;100.00;101719.66;5049656;28;20222;-77
2023/06/28 01:28:30;;;;;;;4.43;2.20;;;;;;;14.52;100.00;101713.53;5054202;28;20196;-78
2023/06/28 01:30:57;;;;;;;5.43;2.70;;;;;;;14.50;100.00;101715.19;5054782;28;20198;-78
2023/06/28 01:33:23;;;;;;;7.53;2.40;;;;;;;14.52;100.00;101720.38;5032225;28;20210;-78
2023/06/28 01:35:50;;;;;;;7.60;2.60;;;;;;;14.49;100.00;101717.75;5052172;28;20678;-78
2023/06/28 01:38:16;;;;;;;6.83;2.20;;;;;;;14.46;100.00;101718.56;5053348;28;20216;-78
2023/06/28 01:40:43;;;;;;;6.53;2.37;;;;;;;14.48;100.00;101722.06;5053893;28;20864;-78
2023/06/28 01:43:08;;;;;;;11.23;2.30;;;;;;;14.48;100.00;101719.47;5050896;28;20197;-78
2023/06/28 01:45:34;;;;;;;8.03;2.40;;;;;;;14.49;100.00;101720.31;5053701;28;20243;-77
2023/06/28 01:48:01;;;;;;;5.80;2.83;;;;;;;14.47;100.00;101722.00;5052979;28;20202;-77
2023/06/28 01:50:27;;;;;;;7.03;2.53;;;;;;;14.46;100.00;101715.13;5053597;28;20193;-76
2023/06/28 01:52:57;;;;;;;6.73;2.80;;;;;;;14.47;100.00;101722.91;5053888;28;20192;-77
2023/06/28 01:55:26;;;;;;;9.27;2.90;;;;;;;14.44;100.00;101725.41;5048669;28;20595;-77
2023/06/28 01:57:51;;;;;;;6.10;2.50;;;;;;;14.42;100.00;101721.94;5060783;28;20222;-78
2023/06/28 02:00:17;;;;;;;6.80;2.50;;;;;;;14.44;100.00;101721.94;5047505;28;20263;-78
2023/06/28 02:02:43;;;;;;;6.90;2.93;;;;;;;14.42;100.00;101723.66;5051590;28;20224;-77
2023/06/28 02:05:08;;;;;;;6.67;3.00;;;;;;;14.40;100.00;101723.63;5051050;28;20615;-76
2023/06/28 02:07:34;;;;;;;6.70;2.77;;;;;;;14.45;100.00;101724.56;5051230;28;20292;-76
2023/06/28 02:10:00;;;;;;;5.40;2.67;;;;;;;14.38;100.00;101722.72;5051866;28;20208;-77
2023/06/28 02:12:26;;;;;;;7.20;2.73;;;;;;;14.39;100.00;101731.31;5035975;28;20198;-76
2023/06/28 02:14:52;;;;;;;6.77;3.00;;;;;;;14.39;100.00;101728.72;5050759;28;20194;-77
2023/06/28 02:17:20;;;;;;;10.80;3.20;;;;;;;14.43;100.00;101722.81;5044424;28;20230;-77
2023/06/28 02:19:49;;;;;;;7.23;3.37;;;;;;;14.43;100.00;101728.84;5049935;28;20188;-77
2023/06/28 02:22:19;;;;;;;7.80;3.10;;;;;;;14.41;100.00;101724.50;5048669;28;20193;-76
2023/06/28 02:24:44;;;;;;;7.70;3.10;;;;;;;14.42;100.00;101721.94;5051532;28;20246;-77
2023/06/28 02:27:10;;;;;;;7.17;3.17;;;;;;;14.43;100.00;101718.53;5052341;28;20221;-77
2023/06/28 02:29:37;;;;;;;6.97;3.27;;;;;;;14.40;100.00;101723.63;5053831;28;20666;-77
2023/06/28 02:32:03;;;;;;;7.10;3.23;;;;;;;14.38;100.00;101717.56;5053093;28;20246;-77
2023/06/28 02:34:29;;;;;;;10.43;3.37;;;;;;;14.28;100.00;101715.66;5034226;28;20190;-77
2023/06/28 02:36:55;;;;;;;7.83;3.37;;;;;;;14.30;100.00;101724.28;5047435;28;20217;-77
2023/06/28 02:39:21;;;;;;;12.43;3.47;;;;;;;14.19;100.00;101718.06;5051279;28;20217;-77
2023/06/28 02:41:47;;;;;;;6.23;3.10;;;;;;;14.19;100.00;101720.63;5049533;28;20190;-77
2023/06/28 02:44:12;;;;;;;8.23;3.53;;;;;;;14.16;100.00;101717.09;5051615;28;20199;-76
2023/06/28 02:46:38;;;;;;;9.60;3.47;;;;;;;14.15;100.00;101715.38;5052998;28;20252;-77
2023/06/28 02:49:06;;;;;;;6.87;3.33;;;;;;;14.14;100.00;101719.66;5051494;28;20217;-77
2023/06/28 02:51:31;;;;;;;5.37;3.80;;;;;;;14.14;100.00;101724.78;5061807;28;20205;-77
2023/06/28 02:54:00;;;;;;;7.63;3.13;;;;;;;14.15;100.00;101726.56;5032092;28;20186;-77
2023/06/28 02:56:26;;;;;;;7.73;3.80;;;;;;;14.19;100.00;101735.19;5046976;28;20745;-77
2023/06/28 02:59:10;;;;;;;9.67;4.00;;;;;;;14.19;100.00;101728.34;5046136;28;20237;-77
2023/06/28 03:01:35;;;;;;;7.23;3.87;;;;;;;14.23;100.00;101721.56;5036674;28;20193;-77
2023/06/28 03:04:02;;;;;;;7.87;4.20;;;;;;;14.31;100.00;101735.47;5035097;28;20232;-77
2023/06/28 03:06:27;;;;;;;9.57;3.87;;;;;;;14.34;100.00;101733.81;5052579;28;20213;-77
2023/06/28 03:08:53;;;;;;;9.40;4.43;;;;;;;14.37;100.00;101736.44;5050893;28;20571;-77
2023/06/28 03:11:18;;;;;;;10.00;4.70;;;;;;;14.34;100.00;101732.94;5056048;28;20640;-77
2023/06/28 03:13:44;;;;;;;7.83;4.13;;;;;;;14.37;100.00;101730.44;5053538;28;20189;-77
2023/06/28 03:16:09;;;;;;;10.80;4.43;;;;;;;14.39;100.00;101732.19;5052913;28;20224;-77
2023/06/28 03:18:36;;;;;;;13.17;5.17;;;;;;;14.47;100.00;101724.59;5070031;28;20252;-76
2023/06/28 03:21:02;;;;;;;12.83;5.10;;;;;;;14.52;100.00;101721.25;5053961;28;20201;-77
2023/06/28 03:23:28;;;;;;;12.00;4.83;;;;;;;14.57;100.00;101719.63;5053143;28;20194;-77
2023/06/28 03:25:53;;;;;;;9.80;4.20;;;;;;;14.65;100.00;101730.06;5041347;28;20641;-77
2023/06/28 03:28:19;;;;;;;13.37;4.87;;;;;;;14.71;100.00;101725.88;5035547;28;20197;-77
2023/06/28 03:30:46;;;;;;;9.20;4.17;;;;;;;14.70;100.00;101720.69;5068464;28;20239;-76
2023/06/28 03:33:12;;;;;;;9.43;4.73;;;;;;;14.65;100.00;101735.22;5049415;28;20189;-76
2023/06/28 03:35:37;;;;;;;11.43;4.73;;;;;;;14.65;100.00;101730.06;5052813;28;20215;-78
2023/06/28 03:38:03;;;;;;;9.40;4.60;;;;;;;14.64;100.00;101734.34;5055910;28;20221;-78
2023/06/28 03:40:29;;;;;;;13.77;4.60;;;;;;;14.64;100.00;101723.19;5056504;28;20201;-77
2023/06/28 03:42:55;;;;;;;9.70;4.37;;;;;;;14.65;100.00;101725.75;5043944;28;20396;-78
2023/06/28 03:45:20;;;;;;;9.53;4.77;;;;;;;14.64;100.00;101726.63;5069683;28;20298;-77
2023/06/28 03:47:47;;;;;;;12.90;4.83;;;;;;;14.65;100.00;101717.19;5071585;28;20270;-79
2023/06/28 03:50:14;;;;;;;10.83;4.80;;;;;;;14.67;100.00;101712.91;5055425;28;20190;-78
2023/06/28 03:52:40;;;;;;;12.43;4.80;;;;;;;14.69;100.00;101711.25;5041415;28;20396;-78
2023/06/28 03:55:06;;;;;;;12.10;4.77;;;;;;;14.70;100.00;101711.28;5037734;28;20288;-77
2023/06/28 03:57:32;;;;;;;8.83;4.13;;;;;;;14.73;100.00;101710.44;5059219;28;20251;-77
2023/06/28 03:59:58;;;;;;;10.07;4.80;;;;;;;14.74;100.00;101710.44;5070057;28;20201;-77
2023/06/28 04:02:23;;;;;;;11.70;4.83;;;;;;;14.78;100.00;101719.97;5063022;28;20210;-76
2023/06/28 04:04:49;;;;;;;11.97;4.47;;;;;;;14.80;100.00;101708.00;5065046;28;20326;-78
2023/06/28 04:07:15;;;;;;;12.67;4.73;;;;;;;14.85;100.00;101711.50;5060790;28;20252;-79
2023/06/28 04:09:42;;;;;;;11.63;4.47;;;;;;;14.91;100.00;101711.59;5040834;28;20200;-78
2023/06/28 04:12:08;;;;;;;13.80;4.90;;;;;;;14.91;100.00;101711.59;5040301;28;20205;-78
2023/06/28 04:14:33;;;;;;;10.63;4.97;;;;;;;14.91;100.00;101710.75;5059633;28;20212;-79
2023/06/28 04:16:59;;;;;;;10.53;4.73;;;;;;;14.94;100.00;101708.19;5056274;28;20691;-79
2023/06/28 04:19:24;;;;;;;13.83;4.70;;;;;;;14.97;100.00;101706.53;5058529;28;20218;-78
2023/06/28 04:21:50;;;;;;;10.57;4.23;;;;;;;14.99;100.00;101706.56;5057295;28;20781;-78
2023/06/28 04:24:16;;;;;;;12.27;4.43;;;;;;;15.02;100.00;101714.34;5057397;28;20201;-79
2023/06/28 04:26:41;;;;;;;11.20;4.07;;;;;;;15.07;100.00;101713.59;5059054;28;20247;-78
2023/06/28 04:29:07;;;;;;;11.57;4.37;;;;;;;15.15;100.00;101716.28;5052512;28;20202;-78
2023/06/28 04:31:33;;;;;;;10.80;4.90;;;;;;;15.18;100.00;101713.72;5059607;28;20201;-78
2023/06/28 04:33:59;;;;;;;9.17;4.13;;;;;;;15.18;100.00;101712.03;5059288;28;20205;-78
2023/06/28 04:36:27;;;;;;;10.87;4.50;;;;;;;15.25;100.00;101711.28;5061727;28;20221;-78
2023/06/28 04:38:54;;;;;;;8.57;3.57;;;;;;;15.35;100.00;101701.97;5056565;28;20297;-79
2023/06/28 04:41:25;;;;;;;12.60;4.03;;;;;;;15.42;100.00;101706.38;5056572;28;20205;-77
2023/06/28 04:43:58;;;;;;;9.80;4.30;;;;;;;15.50;100.00;101709.91;5056583;28;20205;-78
2023/06/28 04:46:26;;;;;;;10.80;3.93;;;;;;;15.58;100.00;101706.59;5058233;28;20322;-78
2023/06/28 04:48:52;;;;;;;9.33;3.80;;;;;;;15.65;100.00;101705.81;5055186;28;20204;-78
2023/06/28 04:51:19;;;;;;;7.67;3.60;;;;;;;15.71;100.00;101707.63;5053171;28;20186;-77
2023/06/28 04:53:46;;;;;;;7.63;3.70;;;;;;;15.80;100.00;101706.00;5056696;28;20194;-77
2023/06/28 04:56:11;;;;;;;10.80;3.90;;;;;;;15.89;100.00;101710.44;5056475;28;20228;-77
2023/06/28 04:58:38;;;;;;;10.40;3.93;;;;;;;15.99;100.00;101707.09;5041854;28;20217;-78
2023/06/28 05:01:07;;;;;;;6.63;3.20;;;;;;;16.07;100.00;101708.06;5040450;28;20189;-78
2023/06/28 05:03:38;;;;;;;7.93;3.73;;;;;;;16.16;100.00;101708.16;5058742;28;20222;-78
2023/06/28 05:06:09;;;;;;;9.43;3.27;;;;;;;16.26;100.00;101715.16;5053878;28;20217;-78
2023/06/28 05:08:35;;;;;;;9.03;3.30;;;;;;;16.39;100.00;101711.84;5057833;28;20205;-77
2023/06/28 05:11:02;;;;;;;11.07;3.30;;;;;;;16.48;100.00;101706.78;5040220;28;20197;-78
2023/06/28 05:13:28;;;;;;;10.17;3.67;;;;;;;16.55;100.00;101703.38;5057599;28;20189;-78
2023/06/28 05:15:53;;;;;;;11.03;3.33;;;;;;;16.67;100.00;101700.94;5058573;28;20633;-78
2023/06/28 05:18:19;;;;;;;10.27;3.63;;;;;;;16.74;100.00;101705.28;5056925;28;20236;-78
2023/06/28 05:20:45;;;;;;;7.47;2.87;;;;;;;16.84;100.00;101705.38;5060067;28;20188;-78
2023/06/28 05:23:23;;;;;;;5.87;2.90;;;;;;;16.97;100.00;101709.78;5065667;28;20251;-79
2023/06/28 05:25:49;;;;;;;10.07;3.17;;;;;;;17.10;100.00;101706.44;5056903;28;20569;-78
2023/06/28 05:28:15;;;;;;;10.70;2.97;;;;;;;17.28;100.00;101710.84;5053074;28;20277;-79
2023/06/28 05:30:42;;;;;;;6.70;2.53;;;;;;;17.43;100.00;101717.03;5058583;28;20735;-78
2023/06/28 05:33:08;;;;;;;6.83;2.60;;;;;;;17.61;100.00;101704.19;5056378;28;20193;-78
2023/06/28 05:35:35;;;;;;;8.03;2.67;;;;;;;17.79;100.00;101712.03;5058856;28;20277;-78
2023/06/28 05:38:04;;;;;;;9.87;2.80;;;;;;;17.87;100.00;101706.88;5055457;28;20388;-78
2023/06/28 05:40:30;;;;;;;10.23;3.17;;;;;;;17.90;100.00;101712.91;5058708;28;20197;-78
2023/06/28 05:42:58;;;;;;;9.77;3.00;;;;;;;18.04;100.00;101707.75;5052439;28;20234;-78
2023/06/28 05:45:29;;;;;;;10.00;2.90;;;;;;;18.06;100.00;101706.91;5055381;28;20709;-77
2023/06/28 05:47:55;;;;;;;8.63;2.60;;;;;;;18.13;100.00;101710.38;5055822;28;20205;-78
2023/06/28 05:50:21;;;;;;;6.83;2.50;;;;;;;18.17;100.00;101710.41;5066331;28;20189;-77
2023/06/28 05:52:48;;;;;;;7.27;2.70;;;;;;;18.36;100.00;101711.34;5049323;28;20716;-77
2023/06/28 05:55:13;;;;;;;6.57;2.60;;;;;;;18.40;100.00;101713.94;5054873;28;20189;-76
2023/06/28 05:57:40;;;;;;;6.53;2.97;;;;;;;18.55;100.00;101716.56;5053615;28;20215;-77
2023/06/28 06:00:08;;;;;;;5.77;2.30;;;;;;;18.57;100.00;101709.63;5051761;28;20194;-77
2023/06/28 06:02:34;;;;;;;4.93;2.30;;;;;;;18.67;100.00;101706.19;5045041;28;20243;-78
2023/06/28 06:05:01;;;;;;;5.83;2.80;;;;;;;18.76;100.00;101711.41;5055419;28;20201;-78
2023/06/28 06:07:27;;;;;;;9.03;2.57;;;;;;;18.88;100.00;101708.78;5035034;28;20217;-77
2023/06/28 06:09:53;;;;;;;7.30;2.00;;;;;;;19.08;100.00;101707.03;5058505;28;20275;-78
2023/06/28 06:12:19;;;;;;;8.23;2.33;;;;;;;19.20;100.00;101707.00;5052712;28;20807;-78
2023/06/28 06:14:45;;;;;;;5.67;2.00;;;;;;;19.27;100.00;101700.09;5056974;28;20196;-78
2023/06/28 06:17:10;;;;;;;8.80;2.23;;;;;;;19.42;100.00;101700.94;5056786;28;20213;-77
2023/06/28 06:19:35;;;;;;;5.40;1.77;;;;;;;19.47;100.00;101700.91;5058787;28;20300;-78
2023/06/28 06:22:02;;;;;;;5.80;2.27;;;;;;;19.47;100.00;101706.09;5057413;28;20840;-78
2023/06/28 06:24:27;;;;;;;5.67;2.37;;;;;;;19.72;100.00;101708.59;5054777;28;20243;-77
2023/06/28 06:26:52;;;;;;;10.13;2.40;;;;;;;19.85;100.00;101707.69;5054020;28;20221;-77
2023/06/28 06:29:18;;;;;;;6.97;2.20;;;;;;;19.66;100.00;101713.84;5055007;28;20644;-78
2023/06/28 06:31:43;;;;;;;4.90;2.00;;;;;;;19.93;100.00;101707.66;5051979;28;20188;-78
2023/06/28 06:34:09;;;;;;;5.67;1.90;;;;;;;20.11;100.00;101715.41;5071109;28;20763;-78
2023/06/28 06:36:36;;;;;;;9.03;2.43;;;;;;;20.32;100.00;101699.66;5058335;28;20213;-77
2023/06/28 06:39:02;;;;;;;4.40;1.97;;;;;;;20.26;100.00;101689.31;5056186;28;20317;-78
2023/06/28 06:41:28;;;;;;;5.60;2.00;;;;;;;20.48;100.00;101699.56;5073527;28;20644;-78
2023/06/28 06:43:53;;;;;;;7.53;2.17;;;;;;;20.60;100.00;101690.78;5051309;28;20191;-77
2023/06/28 06:46:20;;;;;;;5.97;2.00;;;;;;;20.80;100.00;101707.09;5054478;28;20319;-77
2023/06/28 06:48:48;;;;;;;8.50;2.40;;;;;;;20.80;100.00;101696.69;5057011;28;20197;-77
2023/06/28 06:51:14;;;;;;;6.70;1.97;;;;;;;20.91;100.00;101681.88;5048029;28;20197;-78
2023/06/28 06:53:40;;;;;;;5.23;2.10;;;;;;;20.98;100.00;101683.53;5060302;28;20689;-78
2023/06/28 06:56:05;;;;;;;5.10;2.10;;;;;;;20.86;100.00;101678.44;5066960;28;20205;-76
2023/06/28 06:58:31;;;;;;;8.33;2.00;;;;;;;20.96;100.00;101685.31;5053695;28;20754;-79
2023/06/28 07:00:56;;;;;;;7.17;2.00;;;;;;;21.34;100.00;101675.34;5056311;28;20212;-77
2023/06/28 07:03:22;;;;;;;4.93;2.17;;;;;;;21.50;100.00;101642.97;5056804;28;20201;-78
2023/06/28 07:05:47;;;;;;;5.40;2.40;;;;;;;21.60;100.00;101632.44;5050966;28;20216;-78
2023/06/28 07:08:13;;;;;;;8.00;2.27;;;;;;;21.16;100.00;101654.69;5049190;28;20185;-77
2023/06/28 07:10:39;;;;;;;4.73;2.03;;;;;;;21.13;100.00;101699.88;5057914;28;20192;-78
2023/06/28 07:13:04;;;;;;;8.63;2.00;;;;;;;21.08;100.00;101657.38;5060294;28;20652;-77
2023/06/28 07:15:30;;;;;;;7.17;2.07;;;;;;;21.40;100.00;101643.97;5061399;28;20251;-77
2023/06/28 07:17:55;;;;;;;3.50;1.60;;;;;;;21.71;100.00;101645.38;5062058;28;20278;-76
2023/06/28 07:20:21;;;;;;;3.93;1.67;;;;;;;21.89;100.00;101648.56;5058647;28;20193;-77
2023/06/28 07:22:47;;;;;;;6.23;2.10;;;;;;;21.89;100.00;101611.22;5058944;28;20189;-76
2023/06/28 07:25:13;;;;;;;10.10;2.50;;;;;;;21.59;100.00;101614.19;5025550;28;20247;-78
2023/06/28 07:27:39;;;;;;;8.73;2.40;;;;;;;21.66;100.00;101624.50;5059993;28;20239;-74
2023/06/28 07:30:07;;;;;;;6.30;2.00;;;;;;;21.46;100.00;101652.59;5049343;28;20837;-75
2023/06/28 07:32:33;;;;;;;7.60;1.97;;;;;;;21.08;100.00;101660.00;5056472;28;20186;-75
2023/06/28 07:34:58;;;;;;;10.00;2.23;;;;;;;21.12;100.00;101699.88;5049572;28;20686;-74
2023/06/28 07:37:24;;;;;;;9.43;2.43;;;;;;;21.01;100.00;101699.97;5051626;28;20205;-74
2023/06/28 07:39:49;;;;;;;7.23;2.20;;;;;;;21.41;100.00;101667.44;5051062;28;20200;-73
2023/06/28 07:42:15;;;;;;;7.30;2.20;;;;;;;21.09;100.00;101695.56;5050356;28;20194;-74
2023/06/28 07:44:40;;;;;;;5.67;2.20;;;;;;;21.11;100.00;101704.25;5051749;28;20251;-75
2023/06/28 07:47:06;;;;;;;7.50;1.93;;;;;;;21.33;100.00;101673.63;5054810;28;20221;-74
2023/06/28 07:49:31;;;;;;;5.43;2.00;;;;;;;21.69;100.00;101673.22;5055590;28;20199;-74
2023/06/28 07:51:59;;;;;;;4.90;1.80;;;;;;;21.71;100.00;101656.69;5052063;28;20244;-74
2023/06/28 07:54:24;;;;;;;6.63;1.90;;;;;;;21.94;100.00;101638.97;5037559;28;20200;-73
2023/06/28 07:56:50;;;;;;;5.37;1.73;;;;;;;22.17;100.00;101604.69;5051691;28;20693;-75
2023/06/28 07:59:16;;;;;;;3.40;1.70;;;;;;;21.86;100.00;101574.72;5050255;28;20210;-75
2023/06/28 08:01:42;;;;;;;5.50;2.23;;;;;;;21.77;100.00;101609.63;5048320;28;20238;-75
2023/06/28 08:04:07;;;;;;;8.63;2.50;;;;;;;21.43;100.00;101620.50;5055868;28;20273;-75
2023/06/28 08:06:33;;;;;;;4.77;1.90;;;;;;;21.26;100.00;101644.16;5059063;28;20212;-73
2023/06/28 08:08:59;;;;;;;4.57;1.50;;;;;;;21.21;100.00;101655.50;5057803;28;20677;-76
2023/06/28 08:11:26;;;;;;;5.03;1.90;;;;;;;21.95;100.00;101643.28;5055525;28;20205;-75
2023/06/28 08:13:52;;;;;;;7.90;2.07;;;;;;;22.46;100.00;101627.75;5054145;28;20190;-76
2023/06/28 08:16:17;;;;;;;6.70;2.50;;;;;;;22.60;100.00;101623.16;5058232;28;20232;-77
2023/06/28 08:18:43;;;;;;;6.23;2.07;;;;;;;22.18;100.00;101593.34;5053885;28;20716;-78
2023/06/28 08:21:08;;;;;;;7.27;2.10;;;;;;;22.15;100.00;101611.66;5053644;28;20209;-76
2023/06/28 08:23:34;;;;;;;4.77;2.30;;;;;;;21.92;100.00;101621.63;5065800;28;20289;-76
2023/06/28 08:26:00;;;;;;;8.00;2.07;;;;;;;21.67;100.00;101648.84;5043091;28;20215;-76
2023/06/28 08:28:25;;;;;;;5.73;2.03;;;;;;;22.43;100.00;101633.84;5044360;28;20259;-75
2023/06/28 08:30:50;;;;;;;5.43;1.70;;;;;;;22.95;100.00;101598.13;5056101;28;20304;-76
2023/06/28 08:33:16;;;;;;;5.60;1.90;;;;;;;23.02;100.00;101536.13;5055005;28;20657;-77
2023/06/28 08:35:41;;;;;;;4.87;1.90;;;;;;;23.20;100.00;101533.19;5053521;28;20197;-76
2023/06/28 08:38:07;;;;;;;6.77;2.20;;;;;;;22.64;100.00;101555.16;5035038;28;20230;-76
2023/06/28 08:40:32;;;;;;;5.20;2.03;;;;;;;22.31;100.00;101602.72;5050937;28;20237;-76
2023/06/28 08:43:01;;;;;;;6.60;2.03;;;;;;;22.33;100.00;101613.97;5054745;28;20533;-77
2023/06/28 08:45:30;;;;;;;7.17;1.83;;;;;;;22.06;100.00;101614.44;5052806;28;20198;-76
2023/06/28 08:47:56;;;;;;;4.47;1.80;;;;;;;22.82;100.00;101617.50;5056630;28;20266;-74
2023/06/28 08:50:22;;;;;;;5.33;2.00;;;;;;;23.31;100.00;101588.72;5055047;28;20189;-77
2023/06/28 08:52:50;;;;;;;5.67;1.90;;;;;;;23.18;100.00;101546.25;5058902;28;20207;-76
2023/06/28 08:55:15;;;;;;;7.32;2.35;;;;;;;23.59;99.18;101527.94;5063501;28;20216;-76
2023/06/28 08:57:42;;;;;;;4.72;1.80;;;;;;;23.72;93.43;101502.34;5054312;28;20237;-76
2023/06/28 09:00:10;;;;;;;5.25;2.00;;;;;;;23.71;94.95;101509.31;5048987;28;20301;-75
2023/06/28 09:02:38;;;;;;;5.38;1.95;;;;;;;24.02;90.62;101486.78;5058457;28;20619;-75
2023/06/28 09:05:06;;;;;;;4.38;1.90;;;;;;;24.34;87.35;101464.97;5059854;28;20790;-75
2023/06/28 09:07:33;;;;;;;3.75;2.13;;;;;;;24.74;79.81;101448.16;5044702;28;20304;-75
2023/06/28 09:09:59;;;;;;;4.57;1.88;;;;;;;24.78;88.98;101473.38;5046521;28;20281;-75
2023/06/28 09:12:26;;;;;;;5.40;2.25;;;;;;;24.01;84.82;101469.38;5060912;28;20309;-75
2023/06/28 09:14:52;;;;;;;6.53;2.08;;;;;;;24.47;92.86;101517.03;5062388;28;20242;-76
2023/06/28 09:17:18;;;;;;;5.80;2.13;;;;;;;23.93;92.18;101509.69;5058309;28;20300;-77
2023/06/28 09:19:44;;;;;;;5.50;1.70;;;;;;;23.91;88.17;101493.19;5062754;28;20215;-75
2023/06/28 09:22:10;;;;;;;7.90;2.22;;;;;;;24.65;84.50;101468.53;5068275;28;20198;-73
2023/06/28 09:24:36;;;;;;;7.72;2.25;;;;;;;24.93;84.93;101470.31;5055723;28;20562;-76
2023/06/28 09:27:04;;;;;;;11.05;2.42;;;;;;;25.34;80.89;101461.22;5042654;28;20688;-75
2023/06/28 09:29:29;;;;;;;5.97;2.00;;;;;;;25.07;73.52;101423.56;5070830;28;20243;-73
2023/06/28 09:31:55;;;;;;;4.45;1.58;;;;;;;24.73;75.41;101438.56;5053546;28;20280;-74
2023/06/28 09:34:25;;;;;;;7.90;2.25;;;;;;;24.29;80.41;101474.72;5048832;28;20247;-74
2023/06/28 09:36:54;;;;;;;5.85;1.92;;;;;;;24.25;83.37;101494.03;5046741;28;20219;-73
2023/06/28 09:39:20;;;;;;;7.57;2.20;;;;;;;24.38;80.56;101482.34;5048463;28;20218;-74
2023/06/28 09:41:45;;;;;;;5.53;2.33;;;;;;;24.66;83.79;101488.56;5063657;28;20200;-74
2023/06/28 09:44:11;;;;;;;5.40;2.05;;;;;;;24.52;82.14;101493.31;5050337;28;20198;-74
2023/06/28 09:46:44;;;;;;;5.30;2.10;;;;;;;24.57;74.80;101452.13;5052168;28;20221;-75
2023/06/28 09:49:23;;;;;;;3.15;1.70;;;;;;;24.40;75.14;101449.13;5052314;28;20214;-74
2023/06/28 09:52:09;;;;;;;3.58;1.92;;;;;;;24.72;75.18;101456.97;5039709;28;20204;-74
2023/06/28 09:54:45;;;;;;;2.85;1.83;;;;;;;25.20;76.33;101464.25;5050678;28;20209;-75
2023/06/28 09:57:11;;;;;;;3.65;1.65;;;;;;;25.30;66.88;101412.38;5046984;28;20239;-74
2023/06/28 09:59:39;;;;;;;7.38;2.03;;;;;;;25.39;65.85;101412.09;5054609;28;20303;-74
2023/06/28 10:02:08;;;;;;;4.80;1.95;;;;;;;25.27;70.56;101444.81;5052740;28;20652;-74
2023/06/28 10:04:36;;;;;;;8.07;2.70;;;;;;;25.42;71.13;101448.72;5057834;28;20587;-75
2023/06/28 10:07:03;;;;;;;5.78;2.13;;;;;;;26.14;71.29;101454.19;5047439;28;20612;-74
2023/06/28 10:09:49;;;;;;;5.65;2.33;;;;;;;26.37;60.52;101393.81;5046992;28;20277;-74
2023/06/28 10:12:20;;;;;;;7.30;2.50;;;;;;;26.30;59.50;101392.31;5046115;28;20320;-74
2023/06/28 10:15:12;;;;;;;4.85;2.20;;;;;;;26.87;64.01;101427.84;5043918;28;20198;-73
2023/06/28 10:17:38;;;;;;;6.10;1.95;;;;;;;26.20;60.67;101401.47;5052026;28;20209;-74
2023/06/28 10:20:06;;;;;;;7.07;2.40;;;;;;;25.54;61.68;101411.59;5051445;28;20685;-74
2023/06/28 10:22:33;;;;;;;7.07;2.08;;;;;;;25.26;64.91;101436.94;5060282;28;20190;-76
2023/06/28 10:25:01;;;;;;;6.25;2.55;;;;;;;25.73;67.83;101452.94;5046821;28;20646;-76
2023/06/28 10:27:27;;;;;;;5.78;2.35;;;;;;;25.99;67.63;101458.22;5042809;28;20209;-76
2023/06/28 10:29:54;;;;;;;4.65;1.73;;;;;;;26.61;61.99;101413.97;5045848;28;20276;-74
2023/06/28 10:32:20;;;;;;;5.03;2.10;;;;;;;26.79;56.15;101390.47;5062956;28;20517;-74
2023/06/28 10:34:48;;;;;;;6.47;2.08;;;;;;;27.03;55.80;101389.50;5051817;28;20252;-74
2023/06/28 10:37:20;;;;;;;5.28;2.10;;;;;;;26.85;56.66;101390.22;5048587;28;20216;-74
2023/06/28 10:39:45;;;;;;;4.93;2.20;;;;;;;26.23;56.66;101402.19;5045736;28;20307;-74
2023/06/28 10:42:11;;;;;;;4.38;2.17;;;;;;;25.73;66.16;101466.06;5059880;28;20281;-74
2023/06/28 10:44:57;;;;;;;5.63;2.00;;;;;;;25.46;68.18;101482.69;5057300;28;20205;-73
2023/06/28 10:47:23;;;;;;;5.43;2.38;;;;;;;25.27;68.00;101494.66;5060107;28;20218;-74
2023/06/28 10:50:12;;;;;;;5.50;2.30;;;;;;;26.07;64.45;101471.91;5054048;28;20193;-74
2023/06/28 10:52:57;;;;;;;7.07;2.30;;;;;;;26.75;65.33;101474.78;5071964;28;20209;-74
2023/06/28 10:55:31;;;;;;;6.30;2.22;;;;;;;27.04;58.90;101433.31;5051784;28;20289;-74
2023/06/28 10:58:07;;;;;;;5.80;2.28;;;;;;;27.01;58.05;101430.81;5045160;28;20264;-74
2023/06/28 11:00:50;;;;;;;6.65;2.47;;;;;;;26.34;56.04;101407.91;5043028;28;20196;-74
2023/06/28 11:03:15;;;;;;;6.72;2.47;;;;;;;25.62;70.26;101506.69;5052584;28;20204;-74
2023/06/28 11:05:56;;;;;;;5.00;1.98;;;;;;;25.53;67.87;101497.34;5054972;28;20189;-74
2023/06/28 11:08:36;;;;;;;5.18;2.28;;;;;;;26.16;68.84;101511.00;5052993;28;20182;-74
2023/06/28 11:11:01;;;;;;;4.97;2.00;;;;;;;26.59;63.52;101478.88;5044726;28;20193;-75
2023/06/28 11:13:32;;;;;;;8.07;2.15;;;;;;;26.47;62.88;101460.91;5049016;28;20189;-74
2023/06/28 11:16:08;;;;;;;7.38;2.30;;;;;;;26.42;59.63;101449.66;5044116;28;20304;-74